Litchfield, California
Current Conditions -  °F | °C
As of 1:55 PM on Monday 22 Dec 2014 (Local Time) from KRTS Reporting Station
Scattered Clouds Scattered Clouds  
Wind Chill: 54°   Ceiling: Unl
Heat Index: 54°   Visibility: 10mi
Dew Point: 36°   Wind: 17mph
Humidity: 51%   Direction: 330°NNW
Pressure: 30.31"   Gusts: 25mph
Location:  40.38°N, 120.39°W
Report Text: KRTS 222155Z AUTO 33015G22KT 10SM SCT043 12/02 A3031 RMK AO2
Loading
Personal Weather Stations






























Interactive Weather Map New forecast layout! Learn more

10-Day Weather Forecast

Advertisements
Track Severe Weather on mobile